createdAt,value
2018-05-29T00:00:36.940Z,77.28
2018-05-29T00:01:36.932Z,77.86
2018-05-29T00:02:36.933Z,78.02
2018-05-29T00:03:36.911Z,77.73
2018-05-29T00:04:36.898Z,77.92
2018-05-29T00:05:36.893Z,77.83
2018-05-29T00:06:36.879Z,77.83
2018-05-29T00:07:36.869Z,77.92
2018-05-29T00:08:36.864Z,78.21
2018-05-29T00:09:36.847Z,78.59
2018-05-29T00:10:36.839Z,78.31
2018-05-29T00:11:36.827Z,78.02
2018-05-29T00:12:36.817Z,78.41
2018-05-29T00:13:36.817Z,78.79
2018-05-29T00:14:36.795Z,78.02
2018-05-29T00:15:36.785Z,78.11
2018-05-29T00:16:36.773Z,78.50
2018-05-29T00:17:36.772Z,79.17
2018-05-29T00:18:36.753Z,78.99
2018-05-29T00:19:36.744Z,79.27
2018-05-29T00:20:36.738Z,79.17
2018-05-29T00:21:36.721Z,79.56
2018-05-29T00:22:36.710Z,79.66
2018-05-29T00:23:36.700Z,79.75
2018-05-29T00:24:36.688Z,79.37
2018-05-29T00:25:36.684Z,79.37
2018-05-29T00:26:36.670Z,79.66
2018-05-29T00:27:36.667Z,80.14
2018-05-29T00:28:36.646Z,80.05
2018-05-29T00:29:36.635Z,80.00
2018-05-29T00:30:36.624Z,80.05
2018-05-29T00:31:36.618Z,80.39
2018-05-29T00:32:36.602Z,80.00
2018-05-29T00:33:36.593Z,80.00
2018-05-29T00:34:36.584Z,80.30
2018-05-29T00:35:36.573Z,80.30
2018-05-29T00:36:36.561Z,80.10
2018-05-29T00:37:36.556Z,80.68
2018-05-29T00:38:36.541Z,80.39
2018-05-29T00:39:36.530Z,80.68
2018-05-29T00:40:36.523Z,80.10
2018-05-29T00:41:36.508Z,80.49
2018-05-29T00:42:36.497Z,80.97
2018-05-29T00:43:36.494Z,80.58
2018-05-29T00:44:36.476Z,80.68
2018-05-29T00:45:36.466Z,80.68
2018-05-29T00:46:36.457Z,80.78
2018-05-29T00:47:36.445Z,80.78
2018-05-29T00:48:36.438Z,80.30
2018-05-29T00:49:36.433Z,80.58
2018-05-29T00:50:36.415Z,80.68
2018-05-29T00:51:36.401Z,80.39
2018-05-29T00:52:36.395Z,80.49
2018-05-29T00:53:36.380Z,80.68
2018-05-29T00:54:36.377Z,80.58
2018-05-29T00:55:36.360Z,80.68
2018-05-29T00:56:36.346Z,80.68
2018-05-29T00:57:36.339Z,80.49
2018-05-29T00:58:36.333Z,80.78
2018-05-29T00:59:36.316Z,81.26
2018-05-29T01:00:36.303Z,81.65
2018-05-29T01:01:36.292Z,81.35
2018-05-29T01:02:36.281Z,81.84
2018-05-29T01:03:36.273Z,82.03
2018-05-29T01:04:36.258Z,81.84
2018-05-29T01:05:36.257Z,81.93
2018-05-29T01:06:36.242Z,81.84
2018-05-29T01:07:36.227Z,82.03
2018-05-29T01:08:36.221Z,81.93
2018-05-29T01:09:36.215Z,82.51
2018-05-29T01:10:36.203Z,82.13
2018-05-29T01:11:36.186Z,82.48
2018-05-29T01:12:36.205Z,82.71
2018-05-29T01:13:36.171Z,82.61
2018-05-29T01:14:36.152Z,82.51
2018-05-29T01:15:36.143Z,82.57
2018-05-29T01:16:36.130Z,82.81
2018-05-29T01:17:36.124Z,83.05
2018-05-29T01:18:36.109Z,82.90
2018-05-29T01:19:36.097Z,82.96
2018-05-29T01:20:36.085Z,83.34
2018-05-29T01:21:36.074Z,83.05
2018-05-29T01:22:36.065Z,83.92
2018-05-29T01:23:36.053Z,83.63
2018-05-29T01:24:36.044Z,83.53
2018-05-29T01:25:36.032Z,83.53
2018-05-29T01:26:36.028Z,83.44
2018-05-29T01:27:36.010Z,83.34
2018-05-29T01:28:35.999Z,83.73
2018-05-29T01:29:35.988Z,83.73
2018-05-29T01:30:35.976Z,83.34
2018-05-29T01:31:35.987Z,84.11
2018-05-29T01:32:35.954Z,83.83
2018-05-29T01:33:35.947Z,84.01
2018-05-29T01:34:35.933Z,84.11
2018-05-29T01:35:35.922Z,84.01
2018-05-29T01:36:35.919Z,83.73
2018-05-29T01:37:35.907Z,83.63
2018-05-29T01:38:35.898Z,83.34
2018-05-29T01:39:35.879Z,84.01
2018-05-29T01:40:35.866Z,84.01
2018-05-29T01:41:35.854Z,84.11
2018-05-29T01:42:35.845Z,84.01
2018-05-29T01:43:35.836Z,84.01
2018-05-29T01:44:35.823Z,84.21
2018-05-29T01:45:35.812Z,84.31
2018-05-29T01:46:35.799Z,84.59
2018-05-29T01:47:35.792Z,84.50
2018-05-29T01:48:35.778Z,84.59
2018-05-29T01:49:35.769Z,84.59
2018-05-29T01:50:35.755Z,84.69
2018-05-29T01:51:35.745Z,83.92
2018-05-29T01:52:35.734Z,84.59
2018-05-29T01:53:35.727Z,84.41
2018-05-29T01:54:35.712Z,84.65
2018-05-29T01:55:35.702Z,84.36
2018-05-29T01:56:35.689Z,84.27
2018-05-29T01:57:35.678Z,84.75
2018-05-29T01:58:35.668Z,85.03
2018-05-29T01:59:35.657Z,85.33
2018-05-29T02:00:35.644Z,85.52
2018-05-29T02:01:35.634Z,85.61
2018-05-29T02:02:35.624Z,85.42
2018-05-29T02:03:35.612Z,85.61
2018-05-29T02:04:35.659Z,86.19
2018-05-29T02:05:35.593Z,86.00
2018-05-29T02:06:35.581Z,85.91
2018-05-29T02:07:35.567Z,86.10
2018-05-29T02:08:35.558Z,85.86
2018-05-29T02:09:35.550Z,85.77
2018-05-29T02:10:35.582Z,85.86
2018-05-29T02:11:35.521Z,85.77
2018-05-29T02:12:35.510Z,85.77
2018-05-29T02:13:35.499Z,86.15
2018-05-29T02:14:35.487Z,86.25
2018-05-29T02:15:35.481Z,85.96
2018-05-29T02:16:35.463Z,86.44
2018-05-29T02:17:35.453Z,86.44
2018-05-29T02:18:35.441Z,86.63
2018-05-29T02:19:35.431Z,86.44
2018-05-29T02:20:35.417Z,86.63
2018-05-29T02:21:35.407Z,86.10
2018-05-29T02:22:35.397Z,85.71
2018-05-29T02:23:35.385Z,85.81
2018-05-29T02:24:35.374Z,85.33
2018-05-29T02:25:35.362Z,85.42
2018-05-29T02:26:35.354Z,85.33
2018-05-29T02:27:35.339Z,85.33
2018-05-29T02:28:35.331Z,85.71
2018-05-29T02:29:35.316Z,85.33
2018-05-29T02:30:35.308Z,85.61
2018-05-29T02:31:35.303Z,85.67
2018-05-29T02:32:35.283Z,85.77
2018-05-29T02:33:35.324Z,85.77
2018-05-29T02:34:35.260Z,85.96
2018-05-29T02:35:35.248Z,86.54
2018-05-29T02:36:35.238Z,86.44
2018-05-29T02:37:35.227Z,86.25
2018-05-29T02:38:35.217Z,86.63
2018-05-29T02:39:35.202Z,86.63
2018-05-29T02:40:35.192Z,86.54
2018-05-29T02:41:35.181Z,86.63
2018-05-29T02:42:35.169Z,87.21
2018-05-29T02:43:35.158Z,87.40
2018-05-29T02:44:35.157Z,87.40
2018-05-29T02:45:35.134Z,87.50
2018-05-29T02:46:35.124Z,87.50
2018-05-29T02:47:35.115Z,87.60
2018-05-29T02:48:35.100Z,87.79
2018-05-29T02:49:35.095Z,88.08
2018-05-29T02:50:35.084Z,88.37
2018-05-29T02:51:35.068Z,88.27
2018-05-29T02:52:35.053Z,88.56
2018-05-29T02:53:35.050Z,88.56
2018-05-29T02:54:35.033Z,88.46
2018-05-29T02:55:35.019Z,88.37
2018-05-29T02:56:35.008Z,88.27
2018-05-29T02:57:34.995Z,87.70
2018-05-29T02:58:34.987Z,88.75
2018-05-29T02:59:34.972Z,88.27
2018-05-29T03:00:34.961Z,88.37
2018-05-29T03:01:34.957Z,88.27
2018-05-29T03:02:34.939Z,88.17
2018-05-29T03:03:34.928Z,88.37
2018-05-29T03:04:34.915Z,88.27
2018-05-29T03:05:34.904Z,87.88
2018-05-29T03:06:34.893Z,88.17
2018-05-29T03:07:34.881Z,88.17
2018-05-29T03:08:34.869Z,88.08
2018-05-29T03:09:34.857Z,88.13
2018-05-29T03:10:34.848Z,88.17
2018-05-29T03:11:34.834Z,88.75
2018-05-29T03:12:34.823Z,88.46
2018-05-29T03:13:34.812Z,88.46
2018-05-29T03:14:34.808Z,88.17
2018-05-29T03:15:34.789Z,88.27
2018-05-29T03:16:34.777Z,87.98
2018-05-29T03:17:34.764Z,87.79
2018-05-29T03:18:34.754Z,88.08
2018-05-29T03:19:34.742Z,88.37
2018-05-29T03:20:34.732Z,88.46
2018-05-29T03:21:34.717Z,88.37
2018-05-29T03:22:34.711Z,88.37
2018-05-29T03:23:34.704Z,88.08
2018-05-29T03:24:34.683Z,87.79
2018-05-29T03:25:34.673Z,88.08
2018-05-29T03:26:34.676Z,88.27
2018-05-29T03:27:34.651Z,89.14
2018-05-29T03:28:34.637Z,88.81
2018-05-29T03:29:34.627Z,89.58
2018-05-29T03:30:34.622Z,89.39
2018-05-29T03:31:34.605Z,89.39
2018-05-29T03:32:34.596Z,89.29
2018-05-29T03:33:34.579Z,89.19
2018-05-29T03:34:34.569Z,89.72
2018-05-29T03:35:34.557Z,88.75
2018-05-29T03:36:34.548Z,88.95
2018-05-29T03:37:34.535Z,88.75
2018-05-29T03:38:34.524Z,88.81
2018-05-29T03:39:34.512Z,88.17
2018-05-29T03:40:34.496Z,88.75
2018-05-29T03:41:34.504Z,88.75
2018-05-29T03:42:34.476Z,88.42
2018-05-29T03:43:34.464Z,88.65
2018-05-29T03:44:34.453Z,88.46
2018-05-29T03:45:34.445Z,88.46
2018-05-29T03:46:34.429Z,88.75
2018-05-29T03:47:34.418Z,88.56
2018-05-29T03:48:34.417Z,88.75
2018-05-29T03:49:34.397Z,88.46
2018-05-29T03:50:34.383Z,87.70
2018-05-29T03:51:34.372Z,87.94
2018-05-29T03:52:34.364Z,88.75
2018-05-29T03:53:34.346Z,88.17
2018-05-29T03:54:34.336Z,87.94
2018-05-29T03:55:34.335Z,87.88
2018-05-29T03:56:34.313Z,88.46
2018-05-29T03:57:34.401Z,87.98
2018-05-29T03:58:34.291Z,88.27
2018-05-29T03:59:34.278Z,88.65
2018-05-29T04:00:34.266Z,88.27
2018-05-29T04:01:34.253Z,88.17
2018-05-29T04:03:34.231Z,88.17
2018-05-29T04:04:34.219Z,88.65
2018-05-29T04:05:34.207Z,87.79
2018-05-29T04:06:34.205Z,87.70
2018-05-29T04:07:34.186Z,87.40
2018-05-29T04:08:34.175Z,87.21
2018-05-29T04:09:34.161Z,87.30
2018-05-29T04:10:34.151Z,86.82
2018-05-29T04:11:34.139Z,86.35
2018-05-29T04:12:34.131Z,86.73
2018-05-29T04:13:34.116Z,86.63
2018-05-29T04:14:34.105Z,86.82
2018-05-29T04:15:34.099Z,87.30
2018-05-29T04:16:34.083Z,86.82
2018-05-29T04:17:34.069Z,86.82
2018-05-29T04:18:34.059Z,86.82
2018-05-29T04:19:34.048Z,87.02
2018-05-29T04:20:34.037Z,86.63
2018-05-29T04:21:34.032Z,87.02
2018-05-29T04:22:34.022Z,87.12
2018-05-29T04:23:34.003Z,86.82
2018-05-29T04:24:33.988Z,87.12
2018-05-29T04:25:33.984Z,87.12
2018-05-29T04:26:33.967Z,87.12
2018-05-29T04:28:33.941Z,86.73
2018-05-29T04:29:33.933Z,87.50
2018-05-29T04:30:33.935Z,86.92
2018-05-29T04:31:33.916Z,86.54
2018-05-29T04:32:33.898Z,86.63
2018-05-29T04:33:33.887Z,86.35
2018-05-29T04:34:33.878Z,86.44
2018-05-29T04:35:33.863Z,86.63
2018-05-29T04:36:33.853Z,86.82
2018-05-29T04:37:33.839Z,86.92
2018-05-29T04:38:33.835Z,86.44
2018-05-29T04:39:33.817Z,86.54
2018-05-29T04:40:33.807Z,86.58
2018-05-29T04:41:33.800Z,86.48
2018-05-29T04:42:33.795Z,86.29
2018-05-29T04:43:33.773Z,87.12
2018-05-29T04:44:33.761Z,87.16
2018-05-29T04:45:33.749Z,87.06
2018-05-29T04:46:33.738Z,86.77
2018-05-29T04:47:33.726Z,86.58
2018-05-29T04:48:33.716Z,86.77
2018-05-29T04:49:33.750Z,86.58
2018-05-29T04:50:33.701Z,86.48
2018-05-29T04:51:33.681Z,86.00
2018-05-29T04:52:33.668Z,85.94
2018-05-29T04:53:33.660Z,85.94
2018-05-29T04:54:33.656Z,85.94
2018-05-29T04:55:33.636Z,85.85
2018-05-29T04:56:33.637Z,85.66
2018-05-29T04:57:33.616Z,85.37
2018-05-29T04:58:33.604Z,84.98
2018-05-29T04:59:33.592Z,84.79
2018-05-29T05:00:33.585Z,84.50
2018-05-29T05:01:33.569Z,84.41
2018-05-29T05:02:33.563Z,84.74
2018-05-29T05:03:33.547Z,84.44
2018-05-29T05:04:33.536Z,84.35
2018-05-29T05:05:33.524Z,83.83
2018-05-29T05:06:33.513Z,84.50
2018-05-29T05:07:33.507Z,85.37
2018-05-29T05:08:33.510Z,84.21
2018-05-29T05:09:33.482Z,84.11
2018-05-29T05:10:33.469Z,84.21
2018-05-29T05:11:33.459Z,84.31
2018-05-29T05:12:33.446Z,84.01
2018-05-29T05:13:33.435Z,84.11
2018-05-29T05:14:33.425Z,84.41
2018-05-29T05:15:33.413Z,85.08
2018-05-29T05:16:33.402Z,84.64
2018-05-29T05:17:33.393Z,84.06
2018-05-29T05:18:33.384Z,83.39
2018-05-29T05:19:33.370Z,83.58
2018-05-29T05:20:33.359Z,82.32
2018-05-29T05:21:33.347Z,82.23
2018-05-29T05:22:33.337Z,82.84
2018-05-29T05:23:33.444Z,82.75
2018-05-29T05:24:33.314Z,82.26
2018-05-29T05:25:33.303Z,81.30
2018-05-29T05:26:33.291Z,81.20
2018-05-29T05:27:33.296Z,81.20
2018-05-29T05:28:33.269Z,81.11
2018-05-29T05:29:33.265Z,80.43
2018-05-29T05:30:33.248Z,80.62
2018-05-29T05:31:33.252Z,79.70
2018-05-29T05:32:33.228Z,80.28
2018-05-29T05:33:33.216Z,79.06
2018-05-29T05:34:33.205Z,76.43
2018-05-29T05:35:33.198Z,73.60
2018-05-29T05:36:33.187Z,70.67
2018-05-29T05:37:33.173Z,68.41
2018-05-29T05:38:33.174Z,66.69
2018-05-29T05:39:33.176Z,65.27
2018-05-29T05:40:33.141Z,64.69
2018-05-29T05:41:33.137Z,64.04
2018-05-29T05:42:33.126Z,63.26
2018-05-29T05:43:33.113Z,62.51
2018-05-29T05:44:33.107Z,61.05
2018-05-29T05:45:33.093Z,59.82
2018-05-29T05:46:33.087Z,59.56
2018-05-29T05:47:33.078Z,58.97
2018-05-29T05:48:33.068Z,58.81
2018-05-29T05:49:33.070Z,58.42
2018-05-29T05:50:33.055Z,57.37
2018-05-29T05:51:33.045Z,57.71
2018-05-29T05:52:33.039Z,59.36
2018-05-29T05:53:33.033Z,59.10
2018-05-29T05:54:33.025Z,58.45
2018-05-29T05:55:33.019Z,57.37
2018-05-29T05:56:33.017Z,56.23
2018-05-29T05:57:33.006Z,56.33
2018-05-29T05:58:33.092Z,54.97
2018-05-29T05:59:32.995Z,55.26
2018-05-29T06:00:32.988Z,55.29
2018-05-29T06:01:32.984Z,54.63
2018-05-29T06:02:32.980Z,54.24
2018-05-29T06:03:32.981Z,53.97
2018-05-29T06:04:32.978Z,53.58
2018-05-29T06:05:32.972Z,53.13
2018-05-29T06:06:32.961Z,51.59
2018-05-29T06:07:32.958Z,51.29
2018-05-29T06:08:32.952Z,51.78
2018-05-29T06:09:32.950Z,51.03
2018-05-29T06:10:32.951Z,50.24
2018-05-29T06:11:32.942Z,49.29
2018-05-29T06:12:32.946Z,49.75
2018-05-29T06:13:32.934Z,49.75
2018-05-29T06:14:32.937Z,50.05
2018-05-29T06:15:32.930Z,50.24
2018-05-29T06:16:32.933Z,50.73
2018-05-29T06:17:32.924Z,49.58
2018-05-29T06:18:32.923Z,48.99
2018-05-29T06:19:32.921Z,48.82
2018-05-29T06:20:32.920Z,48.50
2018-05-29T06:21:32.916Z,48.60
2018-05-29T06:22:32.931Z,49.02
2018-05-29T06:23:32.913Z,48.04
2018-05-29T06:24:32.913Z,48.21
2018-05-29T06:25:32.910Z,48.43
2018-05-29T06:26:32.908Z,48.36
2018-05-29T06:27:32.909Z,46.91
2018-05-29T06:28:32.915Z,46.64
2018-05-29T06:29:32.905Z,45.27
2018-05-29T06:30:32.905Z,45.47
2018-05-29T06:31:32.905Z,45.95
2018-05-29T06:32:32.907Z,45.19
2018-05-29T06:33:32.902Z,45.07
2018-05-29T06:34:32.904Z,45.15
2018-05-29T06:35:32.904Z,45.64
2018-05-29T06:36:32.903Z,45.76
2018-05-29T06:37:32.909Z,44.51
2018-05-29T06:38:32.905Z,44.17
2018-05-29T06:39:32.905Z,44.95
2018-05-29T06:40:32.904Z,46.40
2018-05-29T06:41:32.907Z,45.64
2018-05-29T06:42:32.908Z,45.01
2018-05-29T06:43:32.909Z,48.07
2018-05-29T06:44:32.909Z,48.26
2018-05-29T06:45:32.917Z,48.48
2018-05-29T06:46:32.918Z,47.89
2018-05-29T06:47:32.922Z,47.89
2018-05-29T06:48:32.912Z,47.60
2018-05-29T06:49:32.913Z,47.60
2018-05-29T06:50:32.915Z,47.89
2018-05-29T06:51:32.917Z,49.26
2018-05-29T06:52:32.958Z,48.58
2018-05-29T06:53:32.916Z,49.04
2018-05-29T06:54:32.918Z,49.73
2018-05-29T06:55:32.919Z,50.10
2018-05-29T06:56:32.919Z,50.95
2018-05-29T06:57:32.922Z,51.82
2018-05-29T06:58:32.942Z,51.07
2018-05-29T06:59:32.925Z,50.00
2018-05-29T07:00:32.923Z,50.12
2018-05-29T07:01:32.926Z,49.33
2018-05-29T07:02:32.928Z,49.85
2018-05-29T07:03:32.930Z,49.75
2018-05-29T07:04:32.932Z,49.95
2018-05-29T07:05:32.947Z,49.53
2018-05-29T07:06:32.934Z,50.12
2018-05-29T07:07:32.935Z,49.36
2018-05-29T07:08:32.937Z,48.38
2018-05-29T07:09:32.939Z,48.28
2018-05-29T07:10:32.945Z,48.77
2018-05-29T07:11:32.939Z,49.16
2018-05-29T07:12:32.946Z,48.80
2018-05-29T07:13:32.940Z,49.04
2018-05-29T07:14:33.005Z,49.68
2018-05-29T07:15:32.940Z,50.65
2018-05-29T07:16:32.941Z,50.65
2018-05-29T07:17:32.952Z,51.07
2018-05-29T07:18:32.944Z,50.68
2018-05-29T07:19:32.945Z,49.53
2018-05-29T07:20:32.952Z,48.68
2018-05-29T07:21:32.948Z,48.38
2018-05-29T07:22:32.949Z,47.53
2018-05-29T07:23:32.951Z,47.80
2018-05-29T07:24:32.953Z,47.80
2018-05-29T07:25:32.954Z,48.44
2018-05-29T07:26:32.956Z,50.07
2018-05-29T07:27:32.959Z,50.82
2018-05-29T07:28:32.959Z,51.02
2018-05-29T07:29:32.961Z,50.73
2018-05-29T07:30:32.968Z,51.90
2018-05-29T07:31:32.964Z,52.39
2018-05-29T07:32:32.964Z,52.46
2018-05-29T07:33:32.967Z,52.85
2018-05-29T07:34:32.966Z,53.73
2018-05-29T07:35:32.970Z,53.63
2018-05-29T07:36:32.967Z,54.48
2018-05-29T07:37:32.970Z,55.07
2018-05-29T07:38:32.965Z,54.77
2018-05-29T07:39:33.024Z,54.53
2018-05-29T07:40:32.975Z,53.49
2018-05-29T07:41:32.964Z,52.02
2018-05-29T07:42:32.964Z,50.20
2018-05-29T07:43:32.962Z,50.22
2018-05-29T07:44:32.966Z,50.00
2018-05-29T07:45:32.959Z,49.80
2018-05-29T07:46:32.956Z,49.63
2018-05-29T07:47:32.963Z,49.90
2018-05-29T07:48:32.953Z,50.10
2018-05-29T07:49:32.952Z,49.82
2018-05-29T07:50:32.948Z,50.20
2018-05-29T07:51:32.948Z,50.78
2018-05-29T07:52:32.944Z,50.16
2018-05-29T07:53:32.942Z,50.75
2018-05-29T07:54:32.940Z,50.95
2018-05-29T07:55:32.937Z,51.04
2018-05-29T07:56:32.936Z,50.43
2018-05-29T07:57:32.930Z,51.02
2018-05-29T07:58:32.929Z,50.73
2018-05-29T07:59:32.926Z,51.02
2018-05-29T08:00:32.923Z,50.92
2018-05-29T08:01:32.925Z,50.82
2018-05-29T08:02:32.917Z,52.00
2018-05-29T08:03:32.914Z,52.00
2018-05-29T08:04:32.916Z,51.90
2018-05-29T08:05:32.908Z,51.02
2018-05-29T08:06:32.913Z,51.80
2018-05-29T08:07:32.903Z,51.90
2018-05-29T08:08:32.904Z,50.73
2018-05-29T08:09:32.904Z,51.12
2018-05-29T08:10:32.910Z,50.53
2018-05-29T08:11:32.893Z,51.87
2018-05-29T08:12:32.887Z,52.29
2018-05-29T08:13:32.891Z,52.39
2018-05-29T08:14:32.878Z,52.68
2018-05-29T08:15:32.876Z,53.27
2018-05-29T08:16:32.879Z,52.26
2018-05-29T08:17:32.877Z,52.66
2018-05-29T08:18:32.887Z,52.26
2018-05-29T08:19:32.860Z,53.24
2018-05-29T08:20:32.857Z,53.83
2018-05-29T08:21:32.853Z,53.83
2018-05-29T08:22:32.855Z,53.07
2018-05-29T08:23:32.848Z,52.78
2018-05-29T08:24:32.887Z,52.61
2018-05-29T08:25:32.836Z,52.12
2018-05-29T08:26:32.831Z,52.41
2018-05-29T08:27:32.832Z,51.95
2018-05-29T08:28:32.823Z,51.86
2018-05-29T08:29:32.820Z,51.76
2018-05-29T08:30:32.815Z,50.98
2018-05-29T08:31:32.812Z,52.02
2018-05-29T08:32:32.813Z,52.70
2018-05-29T08:33:32.808Z,52.41
2018-05-29T08:34:32.797Z,52.51
2018-05-29T08:36:16.928Z,52.31
2018-05-29T08:37:17.932Z,52.78
2018-05-29T08:38:16.916Z,53.19
2018-05-29T08:40:25.998Z,53.29
2018-05-29T08:41:25.991Z,53.29
2018-05-29T08:42:25.977Z,52.61
2018-05-29T08:43:25.982Z,52.83
2018-05-29T08:44:25.969Z,52.51
2018-05-29T08:45:25.964Z,52.05
2018-05-29T08:46:25.964Z,51.00
2018-05-29T08:47:25.964Z,50.51
2018-05-29T08:48:25.950Z,50.12
2018-05-29T08:49:25.943Z,50.24
2018-05-29T08:50:25.938Z,48.68
2018-05-29T08:51:26.950Z,49.26
2018-05-29T08:52:25.941Z,49.46
2018-05-29T08:53:25.942Z,49.46
2018-05-29T09:00:19.586Z,49.43
2018-05-29T09:01:19.572Z,50.22
2018-05-29T09:02:19.569Z,50.51
2018-05-29T09:03:19.565Z,50.81
2018-05-29T09:04:19.571Z,51.10
2018-05-29T09:05:19.565Z,50.83
2018-05-29T09:06:19.553Z,50.17
2018-05-29T09:07:19.550Z,48.50
2018-05-29T09:08:19.547Z,48.14
2018-05-29T09:09:19.547Z,46.47
2018-05-29T09:10:22.569Z,45.79
2018-05-29T09:11:20.958Z,45.79
2018-05-29T09:14:37.846Z,44.85
2018-05-29T09:15:37.844Z,43.31
2018-05-29T09:16:37.843Z,43.21
2018-05-29T09:17:37.839Z,42.99
2018-05-29T09:18:37.846Z,43.07
2018-05-29T09:19:37.839Z,43.15
2018-05-29T09:20:37.847Z,44.89
2018-05-29T09:21:37.835Z,44.52
2018-05-29T09:22:37.842Z,43.98
2018-05-29T09:23:37.835Z,43.66
2018-05-29T09:24:37.834Z,44.13
2018-05-29T09:25:37.832Z,44.42
2018-05-29T09:26:37.836Z,44.32
2018-05-29T09:27:37.831Z,44.52
2018-05-29T09:28:37.836Z,43.46
2018-05-29T09:29:37.842Z,43.19
2018-05-29T09:30:37.830Z,41.35
2018-05-29T09:31:37.837Z,41.37
2018-05-29T09:32:37.833Z,39.72
2018-05-29T09:33:37.830Z,38.85
2018-05-29T09:34:37.828Z,38.27
2018-05-29T09:35:37.830Z,38.07
2018-05-29T09:37:39.334Z,38.93
2018-05-29T09:38:39.331Z,38.35
2018-05-29T09:39:39.342Z,38.54
2018-05-29T09:40:39.333Z,39.43
2018-05-29T09:41:39.344Z,39.14
2018-05-29T09:42:39.337Z,37.98
2018-05-29T09:43:39.342Z,38.92
2018-05-29T09:44:39.383Z,39.03
2018-05-29T09:45:39.341Z,38.07
2018-05-29T09:46:39.353Z,38.07
2018-05-29T09:47:39.344Z,38.07
2018-05-29T09:48:39.345Z,39.39
2018-05-29T09:49:39.347Z,40.16
2018-05-29T09:50:39.353Z,40.00
2018-05-29T09:51:39.353Z,39.72
2018-05-29T09:52:39.370Z,39.82
2018-05-29T09:53:39.355Z,39.82
2018-05-29T09:54:39.355Z,39.53
2018-05-29T09:55:39.365Z,39.53
2018-05-29T09:56:39.358Z,40.01
2018-05-29T09:57:39.359Z,39.23
2018-05-29T09:58:39.363Z,39.27
2018-05-29T09:59:39.366Z,37.92
2018-05-29T10:00:39.364Z,38.96
2018-05-29T10:01:39.361Z,39.72
2018-05-29T10:02:39.376Z,39.54
2018-05-29T10:03:39.365Z,39.54
2018-05-29T10:04:39.366Z,39.92
2018-05-29T10:05:39.367Z,39.15
2018-05-29T10:06:39.374Z,38.90
2018-05-29T10:07:39.370Z,37.55
2018-05-29T10:08:39.372Z,37.38
2018-05-29T10:09:39.373Z,36.88
2018-05-29T10:10:39.371Z,36.69
2018-05-29T10:11:39.381Z,37.76
2018-05-29T10:12:39.381Z,38.24
2018-05-29T10:13:39.379Z,37.08
2018-05-29T10:14:42.821Z,37.02
2018-05-29T10:15:39.389Z,36.51
2018-05-29T10:16:39.387Z,37.01
2018-05-29T10:17:39.424Z,37.02
2018-05-29T10:18:39.390Z,36.07
2018-05-29T10:19:39.404Z,35.38
2018-05-29T10:20:39.400Z,35.17
2018-05-29T10:21:39.408Z,38.31
2018-05-29T10:22:39.410Z,40.03
2018-05-29T10:23:39.417Z,41.49
2018-05-29T10:24:39.435Z,41.80
2018-05-29T10:25:39.425Z,41.31
2018-05-29T10:26:39.427Z,40.86
2018-05-29T10:27:39.434Z,39.92
2018-05-29T10:28:39.439Z,38.95
2018-05-29T10:29:39.441Z,39.03
2018-05-29T10:30:39.462Z,38.95
2018-05-29T10:31:39.451Z,37.89
2018-05-29T10:32:39.460Z,37.59
2018-05-29T10:33:39.462Z,37.61
2018-05-29T10:34:39.471Z,36.84
2018-05-29T10:35:39.476Z,36.27
2018-05-29T10:36:39.489Z,36.23
2018-05-29T10:37:39.488Z,36.25
2018-05-29T10:38:39.505Z,35.96
2018-05-29T10:39:39.497Z,36.61
2018-05-29T10:40:39.521Z,38.26
2018-05-29T10:41:39.515Z,37.79
2018-05-29T10:42:39.518Z,36.94
2018-05-29T10:43:39.525Z,36.63
2018-05-29T10:44:39.531Z,37.51
2018-05-29T10:45:39.544Z,37.22
2018-05-29T10:46:39.553Z,37.12
2018-05-29T10:47:39.560Z,38.74
2018-05-29T10:48:39.560Z,39.23
2018-05-29T10:49:39.567Z,40.11
2018-05-29T10:50:39.574Z,39.13
2018-05-29T10:51:39.588Z,39.13
2018-05-29T10:52:39.595Z,38.66
2018-05-29T10:53:39.595Z,38.46
2018-05-29T10:54:39.603Z,37.81
2018-05-29T10:55:39.609Z,37.63
2018-05-29T10:56:39.617Z,36.57
2018-05-29T10:57:39.625Z,35.69
2018-05-29T10:58:39.644Z,35.60
2018-05-29T10:59:39.636Z,36.25
2018-05-29T11:00:39.647Z,37.77
2018-05-29T11:01:39.653Z,39.42
2018-05-29T11:02:39.661Z,39.07
2018-05-29T11:03:39.667Z,38.01
2018-05-29T11:04:39.674Z,37.24
2018-05-29T11:05:39.684Z,36.74
2018-05-29T11:06:39.696Z,38.28
2018-05-29T11:07:39.712Z,39.25
2018-05-29T11:08:39.710Z,38.97
2018-05-29T11:09:39.712Z,38.34
2018-05-29T11:10:39.727Z,38.48
2018-05-29T11:11:39.725Z,37.14
2018-05-29T11:12:39.735Z,36.33
2018-05-29T11:13:39.741Z,36.46
2018-05-29T11:14:39.748Z,35.40
2018-05-29T11:15:39.756Z,34.43
2018-05-29T11:16:39.763Z,35.63
2018-05-29T11:17:39.772Z,36.02
2018-05-29T11:18:39.780Z,35.15
2018-05-29T11:19:39.792Z,36.40
2018-05-29T11:20:39.792Z,36.77
2018-05-29T11:21:39.804Z,37.55
2018-05-29T11:22:39.811Z,37.08
2018-05-29T11:23:39.818Z,37.07
2018-05-29T11:24:39.826Z,36.59
2018-05-29T11:25:39.835Z,37.44
2018-05-29T11:26:39.840Z,39.53
2018-05-29T11:27:39.849Z,39.84
2018-05-29T11:28:39.857Z,38.88
2018-05-29T11:29:39.871Z,38.13
2018-05-29T11:30:39.867Z,37.93
2018-05-29T11:31:39.876Z,38.03
2018-05-29T11:32:39.891Z,37.92
2018-05-29T11:33:39.891Z,38.90
2018-05-29T11:34:39.895Z,38.32
2018-05-29T11:35:39.910Z,38.56
2018-05-29T11:36:39.907Z,39.03
2018-05-29T11:37:39.914Z,40.21
2018-05-29T11:38:39.971Z,39.66
2018-05-29T11:39:39.925Z,38.60
2018-05-29T11:40:39.931Z,39.00
2018-05-29T11:41:39.938Z,39.54
2018-05-29T11:42:39.940Z,39.95
2018-05-29T11:43:39.948Z,39.94
2018-05-29T11:44:39.952Z,40.03
2018-05-29T11:45:39.956Z,40.68
2018-05-29T11:46:39.962Z,40.80
2018-05-29T11:47:39.969Z,40.31
2018-05-29T11:48:40.033Z,40.13
2018-05-29T11:49:39.970Z,39.82
2018-05-29T11:50:39.983Z,40.01
2018-05-29T11:51:39.987Z,40.03
2018-05-29T11:52:39.978Z,40.90
2018-05-29T11:53:39.986Z,40.61
2018-05-29T11:54:39.981Z,40.82
2018-05-29T11:55:39.991Z,41.02
2018-05-29T11:56:39.984Z,40.92
2018-05-29T11:57:39.996Z,41.19
2018-05-29T11:58:39.995Z,42.55
2018-05-29T11:59:39.987Z,42.05
2018-05-29T12:00:40.091Z,42.02
2018-05-29T12:01:40.003Z,43.17
2018-05-29T12:02:39.992Z,43.46
2018-05-29T12:03:39.994Z,43.34
2018-05-29T12:04:39.987Z,43.24
2018-05-29T12:05:39.987Z,43.17
2018-05-29T12:06:39.989Z,43.15
2018-05-29T12:07:40.043Z,44.03
2018-05-29T12:08:39.985Z,43.29
2018-05-29T12:09:39.984Z,43.19
2018-05-29T12:10:39.983Z,43.19
2018-05-29T12:11:39.980Z,43.19
2018-05-29T12:12:39.989Z,43.29
2018-05-29T12:13:39.979Z,43.38
2018-05-29T12:14:39.976Z,43.48
2018-05-29T12:15:39.974Z,43.29
2018-05-29T12:16:39.983Z,43.21
2018-05-29T12:17:39.973Z,43.23
2018-05-29T12:18:39.969Z,43.04
2018-05-29T12:19:39.967Z,42.91
2018-05-29T12:20:39.966Z,43.51
2018-05-29T12:21:39.967Z,43.29
2018-05-29T12:22:39.964Z,44.62
2018-05-29T12:23:39.960Z,45.47
2018-05-29T12:24:39.964Z,46.26
2018-05-29T12:25:39.965Z,46.18
2018-05-29T12:26:39.955Z,45.98
2018-05-29T12:27:39.952Z,46.28
2018-05-29T12:28:39.950Z,45.89
2018-05-29T12:29:39.945Z,46.45
2018-05-29T12:30:39.943Z,46.72
2018-05-29T12:31:39.941Z,46.92
2018-05-29T12:32:39.939Z,47.14
2018-05-29T12:33:39.936Z,46.57
2018-05-29T12:34:39.931Z,45.98
2018-05-29T12:35:39.939Z,45.93
2018-05-29T12:36:39.935Z,45.05
2018-05-29T12:37:39.923Z,44.37
2018-05-29T12:38:39.939Z,44.17
2018-05-29T12:39:39.918Z,43.60
2018-05-29T12:40:39.915Z,44.17
2018-05-29T12:41:39.915Z,44.34
2018-05-29T12:42:39.907Z,45.03
2018-05-29T12:43:39.906Z,45.10
2018-05-29T12:44:39.902Z,46.08
2018-05-29T12:45:39.911Z,45.98
2018-05-29T12:46:39.896Z,46.47
2018-05-29T12:47:39.900Z,46.37
2018-05-29T12:48:39.894Z,46.77
2018-05-29T12:49:39.887Z,46.28
2018-05-29T12:50:39.894Z,46.79
2018-05-29T12:51:39.882Z,46.59
2018-05-29T12:52:39.879Z,45.15
2018-05-29T12:53:39.877Z,45.44
2018-05-29T12:54:39.872Z,45.42
2018-05-29T12:55:39.867Z,45.89
2018-05-29T12:56:39.870Z,46.28
2018-05-29T12:57:39.862Z,46.06
2018-05-29T12:58:39.905Z,46.84
2018-05-29T12:59:39.863Z,45.97
2018-05-29T13:00:39.859Z,46.37
2018-05-29T13:01:39.851Z,46.37
2018-05-29T13:02:39.845Z,46.47
2018-05-29T13:03:39.843Z,46.57
2018-05-29T13:04:39.854Z,46.37
2018-05-29T13:05:39.857Z,46.28